createdAt,value
2018-12-18T00:00:48.780Z,6.17
2018-12-18T00:09:22.159Z,7.77
2018-12-18T00:14:56.289Z,7.13
2018-12-18T00:17:29.593Z,9.60
2018-12-18T00:20:00.495Z,9.17
2018-12-18T00:22:31.364Z,8.70
2018-12-18T00:25:05.460Z,8.60
2018-12-18T00:27:38.971Z,8.63
2018-12-18T00:33:16.779Z,8.20
2018-12-18T00:35:47.885Z,9.27
2018-12-18T00:38:21.599Z,8.73
2018-12-18T00:40:54.927Z,9.23
2018-12-18T00:43:25.717Z,10.97
2018-12-18T00:46:07.627Z,11.97
2018-12-18T00:48:41.456Z,10.97
2018-12-18T00:51:23.801Z,11.43
2018-12-18T00:53:54.525Z,11.17
2018-12-18T00:56:28.952Z,12.60
2018-12-18T01:02:04.672Z,12.47
2018-12-18T01:04:45.309Z,11.10
2018-12-18T01:07:19.104Z,11.73
2018-12-18T01:10:06.780Z,11.00
2018-12-18T01:12:36.033Z,10.97
2018-12-18T01:18:09.770Z,13.50
2018-12-18T01:20:43.221Z,13.03
2018-12-18T01:23:13.785Z,16.20
2018-12-18T01:25:43.085Z,11.57
2018-12-18T01:28:16.502Z,10.73
2018-12-18T01:30:51.341Z,10.33
2018-12-18T01:33:21.955Z,9.50
2018-12-18T01:35:55.382Z,9.40
2018-12-18T01:38:39.209Z,9.53
2018-12-18T01:47:00.701Z,8.30
2018-12-18T01:49:28.139Z,8.73
2018-12-18T01:52:02.092Z,7.97
2018-12-18T01:54:33.687Z,7.70
2018-12-18T01:57:04.777Z,7.67
2018-12-18T01:59:38.280Z,7.60
2018-12-18T02:02:15.495Z,7.57
2018-12-18T02:04:49.266Z,7.70
2018-12-18T02:07:19.845Z,7.57
2018-12-18T02:09:53.448Z,7.10
2018-12-18T02:12:22.510Z,7.07
2018-12-18T02:14:55.760Z,6.50
2018-12-18T02:17:29.114Z,7.10
2018-12-18T02:25:13.041Z,5.80
2018-12-18T02:27:42.187Z,6.80
2018-12-18T02:30:13.102Z,5.87
2018-12-18T02:32:51.019Z,5.90
2018-12-18T02:35:21.852Z,5.53
2018-12-18T02:37:52.231Z,5.30
2018-12-18T02:40:19.662Z,5.20
2018-12-18T02:42:47.106Z,6.05
2018-12-18T02:45:23.042Z,4.37
2018-12-18T02:47:51.905Z,4.20
2018-12-18T02:50:22.475Z,4.73
2018-12-18T02:52:53.643Z,5.30
2018-12-18T02:55:21.497Z,5.60
2018-12-18T02:57:50.304Z,4.17
2018-12-18T03:00:24.331Z,4.75
2018-12-18T03:02:55.252Z,4.80
2018-12-18T03:05:28.561Z,4.50
2018-12-18T03:08:01.978Z,4.33
2018-12-18T03:10:35.367Z,4.27
2018-12-18T03:13:08.645Z,4.20
2018-12-18T03:15:42.219Z,4.40
2018-12-18T03:18:12.821Z,4.00
2018-12-18T03:20:48.393Z,4.83
2018-12-18T03:23:21.926Z,4.83
2018-12-18T03:25:55.045Z,4.70
2018-12-18T03:28:32.270Z,3.83
2018-12-18T03:31:03.348Z,3.60
2018-12-18T03:33:36.559Z,4.53
2018-12-18T03:36:10.173Z,4.10
2018-12-18T03:38:50.503Z,4.13
2018-12-18T03:41:21.640Z,4.13
2018-12-18T03:43:54.914Z,4.33
2018-12-18T03:46:25.711Z,3.93
2018-12-18T03:49:01.010Z,3.83
2018-12-18T03:51:35.539Z,4.30
2018-12-18T03:54:09.435Z,4.77
2018-12-18T03:59:41.135Z,5.13
2018-12-18T04:02:12.002Z,5.70
2018-12-18T04:04:42.576Z,5.67
2018-12-18T04:07:16.335Z,5.77
2018-12-18T04:09:47.082Z,5.63
2018-12-18T04:12:24.106Z,5.30
2018-12-18T04:14:57.963Z,6.60
2018-12-18T04:17:28.508Z,5.13
2018-12-18T04:20:02.047Z,6.17
2018-12-18T04:22:35.764Z,6.00
2018-12-18T04:25:06.496Z,6.07
2018-12-18T04:27:39.821Z,5.90
2018-12-18T04:30:07.317Z,6.90
2018-12-18T04:32:34.751Z,6.75
2018-12-18T04:35:05.792Z,6.37
2018-12-18T04:37:36.300Z,6.87
2018-12-18T04:40:24.220Z,6.50
2018-12-18T04:42:58.168Z,7.40
2018-12-18T04:45:28.788Z,7.40
2018-12-18T04:48:15.558Z,6.50
2018-12-18T04:50:46.013Z,7.50
2018-12-18T04:53:19.358Z,6.50
2018-12-18T04:55:53.472Z,7.80
2018-12-18T04:58:25.268Z,7.87
2018-12-18T05:01:03.565Z,6.83
2018-12-18T05:03:32.915Z,9.40
2018-12-18T05:06:14.627Z,9.30
2018-12-18T05:14:29.730Z,8.23
2018-12-18T05:17:04.048Z,9.00
2018-12-18T05:19:51.079Z,10.43
2018-12-18T05:28:10.296Z,10.70
2018-12-18T05:30:39.153Z,10.40
2018-12-18T05:36:05.464Z,10.87
2018-12-18T05:44:25.588Z,8.60
2018-12-18T05:46:56.037Z,7.60
2018-12-18T05:49:36.852Z,9.20
2018-12-18T05:52:20.979Z,8.80
2018-12-18T05:57:43.401Z,8.17
2018-12-18T06:06:00.566Z,8.93
2018-12-18T06:17:06.442Z,12.70
2018-12-18T06:19:33.873Z,12.28
2018-12-18T06:22:01.313Z,9.67
2018-12-18T06:24:34.453Z,9.30
2018-12-18T06:27:08.064Z,9.00
2018-12-18T06:41:38.590Z,9.70
2018-12-18T06:44:12.026Z,11.83
2018-12-18T06:55:08.093Z,12.87
2018-12-18T06:57:42.220Z,12.60
2018-12-18T07:00:15.885Z,11.07
2018-12-18T07:05:46.359Z,11.60
2018-12-18T07:08:31.542Z,11.03
2018-12-18T07:11:05.277Z,12.03
2018-12-18T07:16:27.740Z,12.70
2018-12-18T07:19:02.402Z,10.50
2018-12-18T07:21:33.270Z,11.00
2018-12-18T07:24:14.119Z,9.47
2018-12-18T07:26:43.513Z,10.93
2018-12-18T07:29:15.803Z,12.80
2018-12-18T07:31:47.023Z,12.27
2018-12-18T07:45:55.361Z,12.67
2018-12-18T07:48:42.694Z,13.87
2018-12-18T07:54:13.409Z,15.70
2018-12-18T08:11:22.691Z,11.50
2018-12-18T08:25:30.095Z,12.30
2018-12-18T08:45:34.587Z,6.97
2018-12-18T08:48:08.262Z,6.67
2018-12-18T08:50:38.861Z,6.07
2018-12-18T08:53:28.675Z,6.77
2018-12-18T08:58:53.213Z,4.37
2018-12-18T09:01:39.883Z,4.10
2018-12-18T09:04:13.006Z,3.80
2018-12-18T09:06:53.211Z,2.97
2018-12-18T09:21:08.132Z,3.17
2018-12-18T09:29:25.498Z,3.40
2018-12-18T09:34:59.477Z,2.83
2018-12-18T09:43:29.013Z,3.00
2018-12-18T09:49:18.424Z,3.20
2018-12-18T09:51:49.102Z,2.70
2018-12-18T09:54:30.114Z,2.80
2018-12-18T10:05:43.515Z,2.70
2018-12-18T10:11:19.888Z,2.70
2018-12-18T10:16:41.879Z,2.97
2018-12-18T10:22:20.284Z,2.63
2018-12-18T10:24:51.884Z,3.00
2018-12-18T10:30:18.176Z,3.10
2018-12-18T10:32:55.504Z,3.30
2018-12-18T10:35:40.802Z,2.63
2018-12-18T10:41:07.643Z,3.30
2018-12-18T11:15:39.048Z,3.03
2018-12-18T11:18:13.380Z,3.00
2018-12-18T11:20:46.808Z,3.13
2018-12-18T11:23:24.443Z,3.10
2018-12-18T11:25:59.997Z,2.90
2018-12-18T11:28:35.593Z,2.90
2018-12-18T11:37:00.273Z,2.90
2018-12-18T11:53:57.427Z,2.60
2018-12-18T11:56:31.919Z,2.70
2018-12-18T11:59:07.401Z,2.70
2018-12-18T12:04:37.678Z,2.50
2018-12-18T12:18:50.836Z,2.40
2018-12-18T12:21:21.702Z,2.93
2018-12-18T12:29:43.015Z,2.63
2018-12-18T12:32:26.983Z,2.57
2018-12-18T12:35:08.591Z,2.70
2018-12-18T12:46:35.524Z,2.40
2018-12-18T13:00:45.463Z,2.40
2018-12-18T13:06:11.638Z,2.20
2018-12-18T13:14:31.271Z,1.90
2018-12-18T13:17:04.770Z,2.00
2018-12-18T13:22:41.860Z,1.90
2018-12-18T13:25:11.745Z,2.00
2018-12-18T13:27:42.626Z,1.57
2018-12-18T13:39:05.131Z,2.00
2018-12-18T13:47:28.017Z,1.83
2018-12-18T13:55:47.569Z,1.83
2018-12-18T13:58:18.160Z,1.67
2018-12-18T14:00:45.616Z,1.73
2018-12-18T14:03:13.064Z,1.77
2018-12-18T14:05:48.444Z,1.80
2018-12-18T14:14:08.178Z,1.60
2018-12-18T14:16:39.358Z,1.87
2018-12-18T14:19:25.962Z,1.93
2018-12-18T14:21:59.910Z,1.73
2018-12-18T14:24:30.582Z,1.70
2018-12-18T14:30:18.312Z,1.70
2018-12-18T14:32:49.517Z,1.50
2018-12-18T14:35:27.019Z,1.70
2018-12-18T14:38:09.033Z,1.70
2018-12-18T14:40:42.753Z,1.90
2018-12-18T14:43:13.508Z,1.83
2018-12-18T14:45:42.777Z,2.00
2018-12-18T14:48:13.359Z,1.67
2018-12-18T14:50:46.621Z,1.87
2018-12-18T14:53:17.425Z,2.10
2018-12-18T14:55:57.519Z,2.40
2018-12-18T14:58:39.865Z,2.30
2018-12-18T15:01:11.128Z,2.10
2018-12-18T15:03:44.426Z,2.10
2018-12-18T15:06:17.675Z,1.67
2018-12-18T15:08:51.327Z,2.00
2018-12-18T15:11:22.025Z,2.13
2018-12-18T15:13:52.988Z,2.23
2018-12-18T15:16:27.037Z,2.20
2018-12-18T15:18:57.732Z,2.00
2018-12-18T15:21:29.046Z,2.20
2018-12-18T15:24:06.416Z,1.93
2018-12-18T15:26:37.075Z,2.30
2018-12-18T15:29:07.473Z,2.10
2018-12-18T15:31:38.033Z,2.10
2018-12-18T15:34:08.782Z,2.10
2018-12-18T15:36:41.958Z,2.30
2018-12-18T15:39:12.930Z,2.23
2018-12-18T15:41:46.423Z,2.80
2018-12-18T15:44:17.329Z,2.33
2018-12-18T15:46:48.037Z,2.83
2018-12-18T15:49:24.006Z,3.20
2018-12-18T15:51:52.836Z,2.43
2018-12-18T15:54:23.600Z,11.33
2018-12-18T15:56:54.200Z,2.83
2018-12-18T15:59:24.985Z,3.50
2018-12-18T16:01:58.364Z,2.97
2018-12-18T16:04:31.630Z,3.13
2018-12-18T16:07:02.467Z,3.03
2018-12-18T16:09:35.995Z,3.23
2018-12-18T16:12:13.396Z,3.53
2018-12-18T16:14:47.178Z,2.83
2018-12-18T16:17:20.901Z,3.57
2018-12-18T16:19:54.452Z,3.90
2018-12-18T16:22:27.984Z,3.50
2018-12-18T16:24:57.079Z,5.00
2018-12-18T16:27:30.211Z,5.63
2018-12-18T16:30:04.355Z,4.40
2018-12-18T16:32:33.680Z,4.27
2018-12-18T16:35:02.589Z,3.60
2018-12-18T16:37:30.028Z,3.60
2018-12-18T16:40:04.872Z,3.05
2018-12-18T16:42:39.504Z,3.00
2018-12-18T16:45:12.915Z,3.13
2018-12-18T16:47:43.384Z,3.37
2018-12-18T16:53:32.803Z,3.50
2018-12-18T16:56:01.764Z,3.37
2018-12-18T16:58:32.324Z,3.70
2018-12-18T17:01:02.861Z,6.33
2018-12-18T17:03:36.155Z,5.40
2018-12-18T17:06:09.899Z,8.13
2018-12-18T17:08:43.603Z,6.60
2018-12-18T17:11:16.908Z,7.93
2018-12-18T17:13:47.540Z,5.77
2018-12-18T17:16:18.934Z,6.87
2018-12-18T17:18:49.416Z,5.17
2018-12-18T17:21:22.796Z,5.43
2018-12-18T17:24:14.813Z,5.97
2018-12-18T17:26:46.710Z,8.67
2018-12-18T17:29:20.056Z,6.53
2018-12-18T17:31:53.496Z,6.87
2018-12-18T17:34:26.919Z,6.13
2018-12-18T17:37:00.549Z,7.07
2018-12-18T17:39:31.167Z,10.87
2018-12-18T17:42:04.483Z,13.57
2018-12-18T17:44:35.506Z,10.27
2018-12-18T17:47:15.937Z,7.20
2018-12-18T17:49:43.462Z,7.47
2018-12-18T17:52:10.904Z,6.45
2018-12-18T17:54:38.345Z,6.50
2018-12-18T17:57:07.753Z,5.50
2018-12-18T17:59:38.762Z,6.17
2018-12-18T18:02:10.185Z,5.93
2018-12-18T18:04:41.698Z,5.77
2018-12-18T18:07:15.531Z,6.07
2018-12-18T18:09:46.409Z,5.97
2018-12-18T18:12:19.667Z,5.27
2018-12-18T18:14:54.224Z,5.23
2018-12-18T18:17:25.197Z,5.40
2018-12-18T18:19:56.683Z,6.00
2018-12-18T18:22:27.962Z,5.63
2018-12-18T18:25:01.436Z,6.40
2018-12-18T18:27:34.831Z,7.70
2018-12-18T18:30:11.975Z,8.00
2018-12-18T18:32:45.734Z,8.40
2018-12-18T18:35:19.151Z,8.73
2018-12-18T18:37:52.858Z,7.87
2018-12-18T18:40:23.772Z,8.30
2018-12-18T18:42:54.512Z,7.40
2018-12-18T18:45:27.703Z,7.80
2018-12-18T18:47:58.637Z,15.47
2018-12-18T18:50:29.272Z,20.27
2018-12-18T18:52:59.964Z,19.50
2018-12-18T18:55:37.440Z,10.27
2018-12-18T18:58:10.979Z,14.03
2018-12-18T19:00:39.823Z,12.07
2018-12-18T19:03:17.237Z,9.73
2018-12-18T19:05:52.839Z,10.83
2018-12-18T19:08:28.929Z,9.43
2018-12-18T19:10:57.684Z,10.30
2018-12-18T19:13:31.900Z,9.80
2018-12-18T19:16:05.295Z,10.60
2018-12-18T19:18:39.262Z,10.80
2018-12-18T19:21:22.184Z,10.73
2018-12-18T19:23:59.909Z,10.47
2018-12-18T19:26:34.613Z,11.33
2018-12-18T19:29:05.077Z,12.13
2018-12-18T19:31:35.490Z,14.17
2018-12-18T19:34:08.807Z,14.30
2018-12-18T19:36:43.933Z,15.70
2018-12-18T19:39:16.039Z,14.23
2018-12-18T19:41:49.611Z,13.70
2018-12-18T19:44:20.401Z,12.13
2018-12-18T19:46:51.079Z,13.40
2018-12-18T19:49:19.677Z,14.40
2018-12-18T19:51:52.923Z,23.40
2018-12-18T19:54:26.660Z,26.43
2018-12-18T19:57:00.179Z,13.90
2018-12-18T19:59:34.878Z,14.23
2018-12-18T20:02:08.392Z,17.10
2018-12-18T20:04:46.122Z,15.70
2018-12-18T20:07:16.957Z,15.50
2018-12-18T20:09:50.910Z,18.47
2018-12-18T20:12:21.687Z,16.93
2018-12-18T20:14:55.450Z,14.63
2018-12-18T20:17:29.019Z,15.13
2018-12-18T20:19:59.640Z,14.90
2018-12-18T20:22:34.963Z,14.97
2018-12-18T20:25:06.030Z,14.23
2018-12-18T20:27:39.595Z,13.83
2018-12-18T20:30:08.494Z,14.20
2018-12-18T20:32:48.292Z,14.78
2018-12-18T20:35:17.206Z,14.53
2018-12-18T20:37:52.684Z,14.27
2018-12-18T20:40:26.449Z,14.70
2018-12-18T20:42:59.849Z,14.80
2018-12-18T20:45:43.978Z,13.93
2018-12-18T20:48:17.983Z,15.93
2018-12-18T20:50:51.686Z,15.57
2018-12-18T20:53:20.467Z,16.50
2018-12-18T20:55:51.804Z,18.67
2018-12-18T20:58:25.267Z,16.83
2018-12-18T21:00:58.898Z,14.30
2018-12-18T21:03:29.732Z,15.13
2018-12-18T21:06:03.714Z,13.80
2018-12-18T21:08:36.051Z,12.47
2018-12-18T21:11:06.794Z,12.90
2018-12-18T21:13:40.199Z,13.30
2018-12-18T21:16:11.802Z,17.27
2018-12-18T21:18:49.583Z,21.80
2018-12-18T21:21:18.525Z,16.20
2018-12-18T21:23:49.047Z,13.03
2018-12-18T21:26:24.661Z,14.47
2018-12-18T21:28:56.022Z,15.23
2018-12-18T21:31:29.209Z,14.97
2018-12-18T21:34:02.771Z,13.77
2018-12-18T21:36:36.236Z,14.33
2018-12-18T21:39:10.538Z,14.17
2018-12-18T21:41:44.304Z,13.80
2018-12-18T21:44:17.918Z,13.70
2018-12-18T21:47:02.043Z,13.83
2018-12-18T21:49:36.198Z,13.00
2018-12-18T21:52:06.859Z,13.37
2018-12-18T21:54:37.838Z,10.83
2018-12-18T21:57:11.172Z,10.97
2018-12-18T21:59:44.743Z,11.90
2018-12-18T22:02:18.469Z,10.43
2018-12-18T22:04:51.779Z,10.50
2018-12-18T22:07:22.696Z,9.47
2018-12-18T22:09:55.854Z,9.83
2018-12-18T22:12:26.956Z,11.93
2018-12-18T22:15:16.212Z,10.30
2018-12-18T22:17:47.416Z,8.73
2018-12-18T22:20:16.109Z,9.63
2018-12-18T22:22:46.776Z,8.45
2018-12-18T22:25:17.142Z,8.33
2018-12-18T22:27:50.709Z,10.43
2018-12-18T22:30:26.280Z,11.00
2018-12-18T22:33:03.984Z,11.60
2018-12-18T22:35:38.083Z,10.37
2018-12-18T22:38:11.554Z,7.87
2018-12-18T22:40:43.528Z,7.43
2018-12-18T22:43:14.189Z,5.43
2018-12-18T22:45:47.517Z,5.20
2018-12-18T22:51:16.338Z,4.67
2018-12-18T22:53:48.045Z,3.77
2018-12-18T22:56:21.460Z,5.00
2018-12-18T22:58:55.166Z,4.60
2018-12-18T23:01:33.973Z,5.10
2018-12-18T23:04:17.704Z,4.17
2018-12-18T23:12:53.454Z,3.97
2018-12-18T23:15:26.868Z,4.47
2018-12-18T23:17:57.761Z,4.20
2018-12-18T23:20:35.365Z,4.90
2018-12-18T23:23:09.043Z,4.50
2018-12-18T23:28:39.220Z,4.53
2018-12-18T23:34:04.401Z,5.20
2018-12-18T23:36:50.970Z,4.67
2018-12-18T23:39:28.187Z,4.60
2018-12-18T23:47:47.323Z,4.90
2018-12-18T23:50:20.631Z,4.60
2018-12-18T23:52:54.098Z,5.40
